createdAt,value
2023-06-19T00:00:53.603Z,428.10
2023-06-19T00:03:22.942Z,425.95
2023-06-19T00:05:55.868Z,408.25
2023-06-19T00:08:30.635Z,387.83
2023-06-19T00:11:01.437Z,382.85
2023-06-19T00:13:35.201Z,381.40
2023-06-19T00:16:08.191Z,393.27
2023-06-19T00:18:42.228Z,400.73
2023-06-19T00:21:10.590Z,408.83
2023-06-19T00:23:41.011Z,403.67
2023-06-19T00:26:18.421Z,425.65
2023-06-19T00:28:46.778Z,426.08
2023-06-19T00:31:17.894Z,417.35
2023-06-19T00:33:48.491Z,382.73
2023-06-19T00:36:28.249Z,433.33
2023-06-19T00:39:05.824Z,414.40
2023-06-19T00:41:35.957Z,433.25
2023-06-19T00:44:04.024Z,429.33
2023-06-19T00:46:34.495Z,404.13
2023-06-19T00:49:06.837Z,415.15
2023-06-19T00:51:44.711Z,433.80
2023-06-19T00:54:16.823Z,409.45
2023-06-19T00:56:47.216Z,430.08
2023-06-19T00:59:21.998Z,411.83
2023-06-19T01:01:52.599Z,421.65
2023-06-19T01:04:24.052Z,432.35
2023-06-19T01:07:14.777Z,413.27
2023-06-19T01:09:49.162Z,436.75
2023-06-19T01:12:29.241Z,420.98
2023-06-19T01:15:02.570Z,397.38
2023-06-19T01:17:31.433Z,417.88
2023-06-19T01:20:12.520Z,414.55
2023-06-19T01:22:49.506Z,436.73
2023-06-19T01:25:21.197Z,429.00
2023-06-19T01:27:49.432Z,405.67
2023-06-19T01:30:19.356Z,385.30
2023-06-19T01:32:57.206Z,398.10
2023-06-19T01:35:32.018Z,407.63
2023-06-19T01:38:03.079Z,414.95
2023-06-19T01:40:36.531Z,383.17
2023-06-19T01:43:05.886Z,418.05
2023-06-19T01:45:34.278Z,420.25
2023-06-19T01:48:05.146Z,416.70
2023-06-19T01:50:35.848Z,413.85
2023-06-19T01:53:08.520Z,401.13
2023-06-19T01:55:38.987Z,359.33
2023-06-19T01:58:18.576Z,377.40
2023-06-19T02:00:46.910Z,361.08
2023-06-19T02:03:20.120Z,370.00
2023-06-19T02:05:53.477Z,382.17
2023-06-19T02:08:22.790Z,386.17
2023-06-19T02:10:53.512Z,399.35
2023-06-19T02:13:21.716Z,403.73
2023-06-19T02:15:52.445Z,386.80
2023-06-19T02:18:21.461Z,385.27
2023-06-19T02:20:54.949Z,366.38
2023-06-19T02:23:26.164Z,399.85
2023-06-19T02:25:54.108Z,389.88
2023-06-19T02:28:25.337Z,398.77
2023-06-19T02:31:00.221Z,381.55
2023-06-19T02:33:29.635Z,375.75
2023-06-19T02:36:05.513Z,411.20
2023-06-19T02:38:36.890Z,379.20
2023-06-19T02:41:04.935Z,369.75
2023-06-19T02:43:35.696Z,400.35
2023-06-19T02:46:05.355Z,393.77
2023-06-19T02:48:35.904Z,386.92
2023-06-19T02:51:03.892Z,366.52
2023-06-19T02:53:32.078Z,380.33
2023-06-19T02:56:03.161Z,388.05
2023-06-19T02:58:35.522Z,373.10
2023-06-19T03:01:10.006Z,366.85
2023-06-19T03:03:41.260Z,368.40
2023-06-19T03:06:16.364Z,383.13
2023-06-19T03:08:48.341Z,379.25
2023-06-19T03:11:21.432Z,379.75
2023-06-19T03:13:59.851Z,374.35
2023-06-19T03:16:27.948Z,376.15
2023-06-19T03:19:01.379Z,356.08
2023-06-19T03:21:32.152Z,365.25
2023-06-19T03:24:02.893Z,362.17
2023-06-19T03:26:37.563Z,363.98
2023-06-19T03:29:07.864Z,363.85
2023-06-19T03:31:42.872Z,386.55
2023-06-19T03:34:13.579Z,403.00
2023-06-19T03:36:41.577Z,371.27
2023-06-19T03:39:11.491Z,390.77
2023-06-19T03:41:41.133Z,373.23
2023-06-19T03:44:11.920Z,360.77
2023-06-19T03:46:44.291Z,382.38
2023-06-19T03:49:21.081Z,375.77
2023-06-19T03:51:50.701Z,359.10
2023-06-19T03:54:22.699Z,370.45
2023-06-19T03:56:57.180Z,392.73
2023-06-19T03:59:25.234Z,397.95
2023-06-19T04:01:57.996Z,352.40
2023-06-19T04:04:27.794Z,349.40
2023-06-19T04:07:00.426Z,363.13
2023-06-19T04:09:28.574Z,392.60
2023-06-19T04:11:57.909Z,359.17
2023-06-19T04:14:31.364Z,367.98
2023-06-19T04:17:00.758Z,378.67
2023-06-19T04:19:36.745Z,373.15
2023-06-19T04:22:07.380Z,390.80
2023-06-19T04:24:35.510Z,382.13
2023-06-19T04:27:11.143Z,393.95
2023-06-19T04:29:48.757Z,384.10
2023-06-19T04:32:19.405Z,374.25
2023-06-19T04:34:48.270Z,379.02
2023-06-19T04:37:20.473Z,388.23
2023-06-19T04:39:48.821Z,387.20
2023-06-19T04:42:21.897Z,367.40
2023-06-19T04:44:50.403Z,370.10
2023-06-19T04:47:22.871Z,362.50
2023-06-19T04:49:50.851Z,378.25
2023-06-19T04:52:29.889Z,358.60
2023-06-19T04:54:57.862Z,395.20
2023-06-19T04:57:31.217Z,362.10
2023-06-19T05:00:05.271Z,359.88
2023-06-19T05:02:34.076Z,375.90
2023-06-19T05:05:05.689Z,371.17
2023-06-19T05:07:33.962Z,378.73
2023-06-19T05:10:05.107Z,369.48
2023-06-19T05:12:34.788Z,368.00
2023-06-19T05:15:03.615Z,355.58
2023-06-19T05:17:31.784Z,367.50
2023-06-19T05:20:00.206Z,356.67
2023-06-19T05:22:28.369Z,369.10
2023-06-19T05:24:56.559Z,380.58
2023-06-19T05:27:24.854Z,334.25
2023-06-19T05:29:54.523Z,354.13
2023-06-19T05:32:22.944Z,356.77
2023-06-19T05:34:51.307Z,368.80
2023-06-19T05:37:19.781Z,362.25
2023-06-19T05:39:48.041Z,374.00
2023-06-19T05:42:16.195Z,366.38
2023-06-19T05:44:44.481Z,357.77
2023-06-19T05:47:14.105Z,374.55
2023-06-19T05:49:42.448Z,408.58
2023-06-19T05:52:10.746Z,386.15
2023-06-19T05:54:38.845Z,389.35
2023-06-19T05:57:07.914Z,396.90
2023-06-19T05:59:36.140Z,366.58
2023-06-19T06:02:05.135Z,387.52
2023-06-19T06:04:37.815Z,387.00
2023-06-19T06:07:06.725Z,385.17
2023-06-19T06:09:35.391Z,389.27
2023-06-19T06:12:03.558Z,387.98
2023-06-19T06:14:32.138Z,357.85
2023-06-19T06:17:00.739Z,380.92
2023-06-19T06:19:29.975Z,400.08
2023-06-19T06:22:01.173Z,390.95
2023-06-19T06:24:29.440Z,378.08
2023-06-19T06:26:57.689Z,408.33
2023-06-19T06:29:25.770Z,391.58
2023-06-19T06:31:54.140Z,398.52
2023-06-19T06:34:22.678Z,384.25
2023-06-19T06:37:05.061Z,384.55
2023-06-19T06:39:36.194Z,399.25
2023-06-19T06:42:04.491Z,395.95
2023-06-19T06:44:33.256Z,404.27
2023-06-19T06:47:02.359Z,378.83
2023-06-19T06:49:30.500Z,292.92
2023-06-19T06:51:58.655Z,316.85
2023-06-19T06:54:27.130Z,314.27
2023-06-19T06:56:59.584Z,331.00
2023-06-19T06:59:28.335Z,344.35
2023-06-19T07:01:57.706Z,344.38
2023-06-19T07:04:25.975Z,353.85
2023-06-19T07:06:54.044Z,356.58
2023-06-19T07:09:23.436Z,360.67
2023-06-19T07:11:53.732Z,362.13
2023-06-19T07:14:24.046Z,366.48
2023-06-19T07:16:52.493Z,366.50
2023-06-19T07:19:20.814Z,374.50
2023-06-19T07:21:49.202Z,388.73
2023-06-19T07:24:17.517Z,366.10
2023-06-19T07:26:45.927Z,380.63
2023-06-19T07:29:14.315Z,384.63
2023-06-19T07:31:44.641Z,390.02
2023-06-19T07:34:13.047Z,388.33
2023-06-19T07:36:41.230Z,394.10
2023-06-19T07:39:09.649Z,411.33
2023-06-19T07:41:37.961Z,403.38
2023-06-19T07:44:06.519Z,413.90
2023-06-19T07:46:34.817Z,428.27
2023-06-19T07:49:04.337Z,423.30
2023-06-19T07:51:33.039Z,411.13
2023-06-19T07:54:01.308Z,420.92
2023-06-19T07:56:29.716Z,434.98
2023-06-19T07:58:58.513Z,427.05
2023-06-19T08:01:26.621Z,419.42
2023-06-19T08:03:55.117Z,421.67
2023-06-19T08:06:24.707Z,405.15
2023-06-19T08:08:53.417Z,432.52
2023-06-19T08:11:21.859Z,404.15
2023-06-19T08:13:50.876Z,407.38
2023-06-19T08:16:19.709Z,373.02
2023-06-19T08:18:48.064Z,434.00
2023-06-19T08:21:17.766Z,428.02
2023-06-19T08:23:47.253Z,411.95
2023-06-19T08:26:15.446Z,396.13
2023-06-19T08:28:44.061Z,411.40
2023-06-19T08:31:12.511Z,417.00
2023-06-19T08:33:40.681Z,416.08
2023-06-19T08:36:08.854Z,411.83
2023-06-19T08:38:36.953Z,423.75
2023-06-19T08:41:06.525Z,421.02
2023-06-19T08:43:34.717Z,424.88
2023-06-19T08:46:12.380Z,428.70
2023-06-19T08:48:41.807Z,407.30
2023-06-19T08:51:10.286Z,420.73
2023-06-19T08:53:46.962Z,427.35
2023-06-19T08:56:16.591Z,408.83
2023-06-19T08:58:44.947Z,421.60
2023-06-19T09:01:14.608Z,408.60
2023-06-19T09:03:42.778Z,419.88
2023-06-19T09:06:11.934Z,457.65
2023-06-19T09:08:40.220Z,447.00
2023-06-19T09:11:10.774Z,448.85
2023-06-19T09:13:40.902Z,451.27
2023-06-19T09:16:10.294Z,434.73
2023-06-19T09:18:47.093Z,458.23
2023-06-19T09:21:19.633Z,438.63
2023-06-19T09:23:48.949Z,437.77
2023-06-19T09:26:19.111Z,435.30
2023-06-19T09:28:51.643Z,476.92
2023-06-19T09:31:19.697Z,460.60
2023-06-19T09:33:47.987Z,432.05
2023-06-19T09:36:16.878Z,394.58
2023-06-19T09:38:44.957Z,444.50
2023-06-19T09:41:13.942Z,446.85
2023-06-19T09:43:46.051Z,437.42
2023-06-19T09:46:17.363Z,464.20
2023-06-19T09:48:47.485Z,469.40
2023-06-19T09:51:20.926Z,458.70
2023-06-19T09:53:52.155Z,452.98
2023-06-19T09:56:23.477Z,454.00
2023-06-19T09:58:54.076Z,450.55
2023-06-19T10:01:25.020Z,466.67
2023-06-19T10:04:03.602Z,468.63
2023-06-19T10:06:33.836Z,476.50
2023-06-19T10:09:10.115Z,461.95
2023-06-19T10:11:53.439Z,445.95
2023-06-19T10:14:21.963Z,475.95
2023-06-19T10:16:51.548Z,455.27
2023-06-19T10:19:23.028Z,447.42
2023-06-19T10:21:55.575Z,463.42
2023-06-19T10:24:26.194Z,452.85
2023-06-19T10:27:04.949Z,477.27
2023-06-19T10:29:41.926Z,484.33
2023-06-19T10:32:13.922Z,460.15
2023-06-19T10:34:42.584Z,471.17
2023-06-19T10:37:22.427Z,454.45
2023-06-19T10:39:50.502Z,480.85
2023-06-19T10:42:18.447Z,470.92
2023-06-19T10:44:46.658Z,464.15
2023-06-19T10:47:17.426Z,456.73
2023-06-19T10:49:45.558Z,472.98
2023-06-19T10:52:13.823Z,483.42
2023-06-19T10:54:41.849Z,473.70
2023-06-19T10:57:10.220Z,474.77
2023-06-19T10:59:40.802Z,464.67
2023-06-19T11:02:09.006Z,479.45
2023-06-19T11:04:41.633Z,468.55
2023-06-19T11:07:10.564Z,497.40
2023-06-19T11:09:38.684Z,497.25
2023-06-19T11:12:09.894Z,495.85
2023-06-19T11:14:41.155Z,491.45
2023-06-19T11:17:09.607Z,477.25
2023-06-19T11:19:39.473Z,477.48
2023-06-19T11:22:09.308Z,484.08
2023-06-19T11:24:37.663Z,465.98
2023-06-19T11:27:06.633Z,481.63
2023-06-19T11:29:36.804Z,495.55
2023-06-19T11:32:09.518Z,475.25
2023-06-19T11:34:38.979Z,468.73
2023-06-19T11:37:15.864Z,465.27
2023-06-19T11:39:46.332Z,430.50
2023-06-19T11:42:15.548Z,457.80
2023-06-19T11:44:56.055Z,454.48
2023-06-19T11:47:24.902Z,470.17
2023-06-19T11:49:53.606Z,464.23
2023-06-19T11:52:23.105Z,458.55
2023-06-19T11:54:51.413Z,480.42
2023-06-19T11:57:19.518Z,470.08
2023-06-19T11:59:48.298Z,478.10
2023-06-19T12:02:16.609Z,469.85
2023-06-19T12:04:44.858Z,464.92
2023-06-19T12:07:13.459Z,478.38
2023-06-19T12:09:44.318Z,484.40
2023-06-19T12:12:12.972Z,482.40
2023-06-19T12:14:41.462Z,498.58
2023-06-19T12:17:09.750Z,502.73
2023-06-19T12:19:37.970Z,486.52
2023-06-19T12:22:06.995Z,501.10
2023-06-19T12:24:35.184Z,505.88
2023-06-19T12:27:05.230Z,514.63
2023-06-19T12:29:33.518Z,510.63
2023-06-19T12:32:04.133Z,521.25
2023-06-19T12:34:32.328Z,518.47
2023-06-19T12:37:00.832Z,517.47
2023-06-19T12:39:28.911Z,541.42
2023-06-19T12:41:56.978Z,525.60
2023-06-19T12:44:26.778Z,496.27
2023-06-19T12:46:55.175Z,494.20
2023-06-19T12:49:23.310Z,427.75
2023-06-19T12:51:53.299Z,474.70
2023-06-19T12:54:21.614Z,529.15
2023-06-19T12:56:51.788Z,506.48
2023-06-19T12:59:20.227Z,515.42
2023-06-19T13:01:49.875Z,512.38
2023-06-19T13:04:18.433Z,487.55
2023-06-19T13:06:46.532Z,509.60
2023-06-19T13:09:14.926Z,512.53
2023-06-19T13:11:43.234Z,508.00
2023-06-19T13:14:11.356Z,495.00
2023-06-19T13:19:12.085Z,490.05
2023-06-19T13:21:40.134Z,500.85
2023-06-19T13:24:08.660Z,489.60
2023-06-19T13:26:37.267Z,467.48
2023-06-19T13:29:05.386Z,501.17
2023-06-19T13:31:35.130Z,485.23
2023-06-19T13:34:03.279Z,493.02
2023-06-19T13:36:34.000Z,477.95
2023-06-19T13:39:03.784Z,426.45
2023-06-19T13:41:33.711Z,478.38
2023-06-19T13:44:02.367Z,488.08
2023-06-19T13:46:33.019Z,503.50
2023-06-19T13:49:02.095Z,490.90
2023-06-19T13:51:30.269Z,491.80
2023-06-19T13:54:00.169Z,488.00
2023-06-19T13:56:28.399Z,504.77
2023-06-19T13:58:56.658Z,487.35
2023-06-19T14:01:26.642Z,495.77
2023-06-19T14:03:54.990Z,508.40
2023-06-19T14:06:23.486Z,512.80
2023-06-19T14:08:51.535Z,497.02
2023-06-19T14:11:21.558Z,523.72
2023-06-19T14:13:49.696Z,517.33
2023-06-19T14:16:18.058Z,518.78
2023-06-19T14:18:46.136Z,513.15
2023-06-19T14:21:14.260Z,515.75
2023-06-19T14:23:44.617Z,474.42
2023-06-19T14:26:12.938Z,488.73
2023-06-19T14:28:42.326Z,497.55
2023-06-19T14:31:10.458Z,523.70
2023-06-19T14:33:39.144Z,506.80
2023-06-19T14:36:07.347Z,498.27
2023-06-19T14:38:36.670Z,488.50
2023-06-19T14:41:05.035Z,486.80
2023-06-19T14:43:34.486Z,495.02
2023-06-19T14:46:06.384Z,485.02
2023-06-19T14:48:34.466Z,494.60
2023-06-19T14:51:03.164Z,506.73
2023-06-19T14:53:31.200Z,542.90
2023-06-19T14:55:59.291Z,501.83
2023-06-19T14:58:29.856Z,490.80
2023-06-19T15:00:59.075Z,502.63
2023-06-19T15:03:28.719Z,497.88
2023-06-19T15:05:56.951Z,513.25
2023-06-19T15:08:25.348Z,513.10
2023-06-19T15:10:53.654Z,499.92
2023-06-19T15:13:21.775Z,508.80
2023-06-19T15:15:51.966Z,485.23
2023-06-19T15:18:20.309Z,490.67
2023-06-19T15:20:50.642Z,527.55
2023-06-19T15:23:25.692Z,498.42
2023-06-19T15:25:54.987Z,504.13
2023-06-19T15:28:36.715Z,496.02
2023-06-19T15:31:14.471Z,486.42
2023-06-19T15:33:45.268Z,490.88
2023-06-19T15:36:20.076Z,510.20
2023-06-19T15:38:54.368Z,491.33
2023-06-19T15:41:28.408Z,477.60
2023-06-19T15:44:06.852Z,486.08
2023-06-19T15:46:41.365Z,484.02
2023-06-19T15:49:21.455Z,479.98
2023-06-19T15:51:51.058Z,492.33
2023-06-19T15:54:19.130Z,500.27
2023-06-19T15:56:47.335Z,488.02
2023-06-19T15:59:16.206Z,477.45
2023-06-19T16:01:44.253Z,494.75
2023-06-19T16:04:14.259Z,493.83
2023-06-19T16:06:53.652Z,497.95
2023-06-19T16:09:31.114Z,484.67
2023-06-19T16:12:02.849Z,481.92
2023-06-19T16:14:36.324Z,503.80
2023-06-19T16:17:07.830Z,534.03
2023-06-19T16:19:42.608Z,538.22
2023-06-19T16:22:12.328Z,534.20
2023-06-19T16:24:45.500Z,415.23
2023-06-19T16:27:13.662Z,461.55
2023-06-19T16:29:55.605Z,453.50
2023-06-19T16:32:33.898Z,469.42
2023-06-19T16:35:17.404Z,483.67
2023-06-19T16:37:47.552Z,473.73
2023-06-19T16:40:20.072Z,484.65
2023-06-19T16:42:52.470Z,467.63
2023-06-19T16:45:28.031Z,480.17
2023-06-19T16:47:56.430Z,461.42
2023-06-19T16:50:32.749Z,470.02
2023-06-19T16:53:06.799Z,463.02
2023-06-19T16:55:39.937Z,471.65
2023-06-19T16:58:09.078Z,480.60
2023-06-19T17:00:51.100Z,474.05
2023-06-19T17:03:24.624Z,516.78
2023-06-19T17:05:54.590Z,496.67
2023-06-19T17:08:28.447Z,510.60
2023-06-19T17:11:04.642Z,489.70
2023-06-19T17:13:37.308Z,500.42
2023-06-19T17:16:07.413Z,464.50
2023-06-19T17:18:42.417Z,453.77
2023-06-19T17:21:17.561Z,483.48
2023-06-19T17:23:56.806Z,485.95
2023-06-19T17:26:32.150Z,489.42
2023-06-19T17:29:10.452Z,475.98
2023-06-19T17:31:42.866Z,455.08
2023-06-19T17:34:15.131Z,470.88
2023-06-19T17:36:55.422Z,463.15
2023-06-19T17:39:34.204Z,434.20
2023-06-19T17:42:06.324Z,473.35
2023-06-19T17:44:34.544Z,450.67
2023-06-19T17:47:03.009Z,461.98
2023-06-19T17:49:31.101Z,467.40
2023-06-19T17:51:59.341Z,464.27
2023-06-19T17:54:27.315Z,484.48
2023-06-19T17:56:55.252Z,462.48
2023-06-19T17:59:24.777Z,461.20
2023-06-19T18:01:53.100Z,450.90
2023-06-19T18:04:21.107Z,449.10
2023-06-19T18:06:49.457Z,467.58
2023-06-19T18:09:17.513Z,476.00
2023-06-19T18:11:46.395Z,482.52
2023-06-19T18:14:14.695Z,471.90
2023-06-19T18:16:44.209Z,421.15
2023-06-19T18:19:12.281Z,459.98
2023-06-19T18:21:41.264Z,475.05
2023-06-19T18:24:09.541Z,463.67
2023-06-19T18:26:37.459Z,455.30
2023-06-19T18:29:05.498Z,491.90
2023-06-19T18:31:33.479Z,478.42
2023-06-19T18:34:03.260Z,463.88
2023-06-19T18:36:31.388Z,459.70
2023-06-19T18:38:59.466Z,459.23
2023-06-19T18:41:27.578Z,458.13
2023-06-19T18:43:55.743Z,457.48
2023-06-19T18:46:24.028Z,434.90
2023-06-19T18:48:52.253Z,446.85
2023-06-19T18:51:21.717Z,456.52
2023-06-19T18:53:50.209Z,352.10
2023-06-19T18:56:27.373Z,344.73
2023-06-19T18:58:55.387Z,359.20
2023-06-19T19:01:23.427Z,393.08
2023-06-19T19:03:51.701Z,418.58
2023-06-19T19:06:21.108Z,441.73
2023-06-19T19:08:49.292Z,433.33
2023-06-19T19:11:17.290Z,446.45
2023-06-19T19:13:45.424Z,447.23
2023-06-19T19:16:13.503Z,447.35
2023-06-19T19:18:41.760Z,441.52
2023-06-19T19:21:09.721Z,441.88
2023-06-19T19:23:39.240Z,431.73
2023-06-19T19:26:08.121Z,445.92
2023-06-19T19:28:36.437Z,447.20
2023-06-19T19:31:04.626Z,430.55
2023-06-19T19:33:32.643Z,417.92
2023-06-19T19:36:02.302Z,429.98
2023-06-19T19:38:30.349Z,429.45
2023-06-19T19:41:00.054Z,425.88
2023-06-19T19:43:28.315Z,424.58
2023-06-19T19:45:56.463Z,420.52
2023-06-19T19:48:24.466Z,435.80
2023-06-19T19:50:52.509Z,434.23
2023-06-19T19:53:20.458Z,424.52
2023-06-19T19:55:52.324Z,438.77
2023-06-19T19:58:22.908Z,446.42
2023-06-19T20:00:51.156Z,465.33
2023-06-19T20:03:19.321Z,452.83
2023-06-19T20:05:47.453Z,408.23
2023-06-19T20:08:15.479Z,354.98
2023-06-19T20:10:44.573Z,439.67
2023-06-19T20:13:53.343Z,412.85
2023-06-19T20:16:37.673Z,412.65
2023-06-19T20:19:17.331Z,424.05
2023-06-19T20:21:50.133Z,426.45
2023-06-19T20:24:23.700Z,421.92
2023-06-19T20:26:52.285Z,434.85
2023-06-19T20:29:25.032Z,435.20
2023-06-19T20:32:03.263Z,405.15
2023-06-19T20:34:36.072Z,419.67
2023-06-19T20:37:04.272Z,417.58
2023-06-19T20:39:40.116Z,435.65
2023-06-19T20:42:10.689Z,415.40
2023-06-19T20:44:41.298Z,425.10
2023-06-19T20:47:10.919Z,448.23
2023-06-19T20:49:38.918Z,432.20
2023-06-19T20:52:11.115Z,407.33
2023-06-19T20:54:41.133Z,438.20
2023-06-19T20:57:12.257Z,420.42
2023-06-19T20:59:40.224Z,425.02
2023-06-19T21:02:14.500Z,378.40
2023-06-19T21:04:47.171Z,400.73
2023-06-19T21:07:15.559Z,415.08
2023-06-19T21:09:47.922Z,407.20
2023-06-19T21:15:14.527Z,423.65
2023-06-19T21:18:16.827Z,423.58
2023-06-19T21:20:46.864Z,437.02
2023-06-19T21:23:18.840Z,402.00
2023-06-19T21:25:49.478Z,410.42
2023-06-19T21:28:34.214Z,410.98
2023-06-19T21:31:06.272Z,409.35
2023-06-19T21:33:35.733Z,420.90
2023-06-19T21:36:04.042Z,413.42
2023-06-19T21:38:39.934Z,403.63
2023-06-19T21:41:11.763Z,392.85
2023-06-19T21:43:39.782Z,418.45
2023-06-19T21:46:11.577Z,391.77
2023-06-19T21:51:55.200Z,385.45
2023-06-19T21:54:25.060Z,361.95
2023-06-19T21:56:54.818Z,369.70
2023-06-19T21:59:27.784Z,369.50
2023-06-19T22:02:00.196Z,377.65
2023-06-19T22:04:30.869Z,321.30
2023-06-19T22:10:00.304Z,329.92
2023-06-19T22:12:45.915Z,357.67
2023-06-19T22:15:18.243Z,385.63
2023-06-19T22:17:48.005Z,372.65
2023-06-19T22:20:32.762Z,384.27
2023-06-19T22:26:00.542Z,393.10
2023-06-19T22:28:39.899Z,386.38
2023-06-19T22:31:30.580Z,403.77
2023-06-19T22:34:11.855Z,410.52
2023-06-19T22:36:59.089Z,396.42
2023-06-19T22:39:33.775Z,399.30
2023-06-19T22:42:15.411Z,386.85
2023-06-19T22:45:00.361Z,385.67
2023-06-19T22:47:33.300Z,395.90
2023-06-19T22:50:12.100Z,395.95
2023-06-19T22:52:51.183Z,393.92
2023-06-19T22:55:30.168Z,392.23
2023-06-19T22:58:04.499Z,402.50
2023-06-19T23:00:48.036Z,390.77
2023-06-19T23:03:20.844Z,385.98
2023-06-19T23:06:26.792Z,400.20
2023-06-19T23:15:18.472Z,393.83
2023-06-19T23:18:10.524Z,403.27
2023-06-19T23:21:02.862Z,385.40
2023-06-19T23:23:51.100Z,387.08
2023-06-19T23:26:49.009Z,373.55
2023-06-19T23:29:43.789Z,375.83
2023-06-19T23:32:29.729Z,376.10
2023-06-19T23:41:50.437Z,376.63
2023-06-19T23:44:46.088Z,365.73
2023-06-19T23:47:30.977Z,377.98
2023-06-19T23:50:16.865Z,372.33
2023-06-19T23:53:10.272Z,391.38
2023-06-19T23:56:07.405Z,372.45
2023-06-19T23:58:58.022Z,371.45
